PWSweather.com
Personal Weather Stations
Station Observations
BRISTOL
HorfieldFilton, BristolGB BS7

HorfieldFiltonBristolGB BS7

Lat: 51.5, Lon: -2.576

Elevation: 272

Station Type: Davis VP2

http://www.martynhicks.co.uk/weather/data.php

Latest ConditionsUpdated 4:20:00 AM GMT Saturday, Jan 21, 2017
Currently Today's Max Today's Min Today's Average
Temperature 29.2°F-1.6°C 33.7°F0.9°C 29.2°F-1.6°C 31.7°F-0.2°C
Dew Point 26.9°F-2.8°C 30.3°F-0.9°C 26.9°F-2.8°C 29.0°F-1.7°C
Winds Calm Calm 4.6 mph E7.4 kmh E - 1.5 mph 2.4 kmh
Wind Gusts -- 9.2 mph14.8 kmh - -
Humidity 91% 91% 87% 90%
Pressure 30.39 in1029.1 mb 30.43 in1030.5 mb 30.39 in1029.1 mb -
Hour Temp Dew Point Humidity Winds Wind Gusts Pressure Precip Precip Rate Daily Precip Total
04:20 AM 29.2°F-1.6°C 26.9°F-2.8°C 91% Calm Calm -- 30.39 in1029.1 mb - 0.00 in0.0 mm 0.00 in0.0 mm
04:10 AM 29.3°F-1.5°C 27.0°F-2.8°C 91% Calm Calm -- 30.39 in1029.1 mb - 0.00 in0.0 mm 0.00 in0.0 mm
04:00 AM 29.6°F-1.3°C 27.3°F-2.6°C 91% Calm Calm -- 30.39 in1029.1 mb - 0.00 in0.0 mm 0.00 in0.0 mm
03:50 AM 29.9°F-1.2°C 27.6°F-2.4°C 91% Calm Calm -- 30.40 in1029.5 mb - 0.00 in0.0 mm 0.00 in0.0 mm
03:40 AM 30.0°F-1.1°C 27.7°F-2.4°C 91% Calm Calm -- 30.40 in1029.5 mb - 0.00 in0.0 mm 0.00 in0.0 mm
03:30 AM 30.2°F-1.0°C 27.9°F-2.3°C 91% Calm Calm -- 30.41 in1029.8 mb - 0.00 in0.0 mm 0.00 in0.0 mm
03:20 AM 30.4°F-0.9°C 28.1°F-2.2°C 91% Calm Calm -- 30.41 in1029.8 mb - 0.00 in0.0 mm 0.00 in0.0 mm
03:10 AM 30.6°F-0.8°C 28.3°F-2.1°C 91% Calm Calm -- 30.41 in1029.8 mb - 0.00 in0.0 mm 0.00 in0.0 mm
03:00 AM 30.8°F-0.7°C 28.5°F-1.9°C 91% Calm Calm -- 30.41 in1029.8 mb - 0.00 in0.0 mm 0.00 in0.0 mm
02:50 AM 31.0°F-0.6°C 28.4°F-2.0°C 90% Calm Calm -- 30.41 in1029.8 mb - 0.00 in0.0 mm 0.00 in0.0 mm
02:40 AM 31.3°F-0.4°C 28.9°F-1.7°C 91% Calm Calm -- 30.41 in1029.8 mb - 0.00 in0.0 mm 0.00 in0.0 mm
02:30 AM 31.6°F-0.2°C 29.2°F-1.6°C 91% Calm Calm -- 30.41 in1029.8 mb - 0.00 in0.0 mm 0.00 in0.0 mm
02:20 AM 31.8°F-0.1°C 29.2°F-1.6°C 90% Calm Calm -- 30.41 in1029.8 mb - 0.00 in0.0 mm 0.00 in0.0 mm
02:10 AM 31.9°F-0.1°C 29.3°F-1.5°C 90% 2.3 mph E3.7 kmh E 3.5 mph5.6 kmh 30.41 in1029.8 mb - 0.00 in0.0 mm 0.00 in0.0 mm
02:00 AM 32.0°F0.0°C 29.4°F-1.4°C 90% 1.2 mph E1.9 kmh E 3.5 mph5.6 kmh 30.41 in1029.8 mb - 0.00 in0.0 mm 0.00 in0.0 mm
01:50 AM 32.1°F0.1°C 29.5°F-1.4°C 90% 3.5 mph E5.6 kmh E 6.9 mph11.1 kmh 30.41 in1029.8 mb - 0.00 in0.0 mm 0.00 in0.0 mm
01:40 AM 32.2°F0.1°C 29.3°F-1.5°C 89% 2.3 mph E3.7 kmh E 3.5 mph5.6 kmh 30.41 in1029.8 mb - 0.00 in0.0 mm 0.00 in0.0 mm
01:30 AM 32.4°F0.2°C 29.5°F-1.4°C 89% 2.3 mph E3.7 kmh E 3.5 mph5.6 kmh 30.41 in1029.8 mb - 0.00 in0.0 mm 0.00 in0.0 mm
01:20 AM 32.6°F0.3°C 29.7°F-1.3°C 89% 2.3 mph E3.7 kmh E 3.5 mph5.6 kmh 30.41 in1029.8 mb - 0.00 in0.0 mm 0.00 in0.0 mm
01:10 AM 32.8°F0.4°C 29.9°F-1.2°C 89% 2.3 mph E3.7 kmh E 5.8 mph9.3 kmh 30.41 in1029.8 mb - 0.00 in0.0 mm 0.00 in0.0 mm
01:00 AM 33.0°F0.6°C 30.1°F-1.1°C 89% 4.6 mph E7.4 kmh E 6.9 mph11.1 kmh 30.42 in1030.1 mb - 0.00 in0.0 mm 0.00 in0.0 mm
12:50 AM 33.1°F0.6°C 29.9°F-1.2°C 88% 4.6 mph E7.4 kmh E 5.8 mph9.3 kmh 30.42 in1030.1 mb - 0.00 in0.0 mm 0.00 in0.0 mm
12:40 AM 33.2°F0.7°C 30.0°F-1.1°C 88% 3.5 mph E5.6 kmh E 6.9 mph11.1 kmh 30.42 in1030.1 mb - 0.00 in0.0 mm 0.00 in0.0 mm
12:30 AM 33.3°F0.7°C 30.1°F-1.1°C 88% 3.5 mph E5.6 kmh E 5.8 mph9.3 kmh 30.42 in1030.1 mb - 0.00 in0.0 mm 0.00 in0.0 mm
12:20 AM 33.4°F0.8°C 30.2°F-1.0°C 88% 2.3 mph E3.7 kmh E 6.9 mph11.1 kmh 30.43 in1030.5 mb - 0.00 in0.0 mm 0.00 in0.0 mm
12:10 AM 33.5°F0.8°C 30.3°F-0.9°C 88% 4.6 mph E7.4 kmh E 9.2 mph14.8 kmh 30.43 in1030.5 mb - 0.00 in0.0 mm 0.00 in0.0 mm
12:00 AM 33.7°F0.9°C 30.2°F-1.0°C 87% 2.3 mph E3.7 kmh E 3.5 mph5.6 kmh 30.43 in1030.5 mb - 0.00 in0.0 mm 0.00 in0.0 mm